createdAt,value
2024-02-12T00:00:49.132Z,7.68
2024-02-12T00:03:18.494Z,7.70
2024-02-12T00:05:47.928Z,7.72
2024-02-12T00:08:16.527Z,7.53
2024-02-12T00:10:44.569Z,7.42
2024-02-12T00:13:12.844Z,7.55
2024-02-12T00:15:40.898Z,7.52
2024-02-12T00:18:10.182Z,7.68
2024-02-12T00:20:37.994Z,7.82
2024-02-12T00:23:06.425Z,7.69
2024-02-12T00:25:35.056Z,7.69
2024-02-12T00:28:02.804Z,7.67
2024-02-12T00:30:34.818Z,7.70
2024-02-12T00:33:05.150Z,7.80
2024-02-12T00:35:34.712Z,7.80
2024-02-12T00:38:02.671Z,7.85
2024-02-12T00:40:31.011Z,7.92
2024-02-12T00:42:59.588Z,7.71
2024-02-12T00:45:27.986Z,7.62
2024-02-12T00:47:57.378Z,7.71
2024-02-12T00:50:25.081Z,7.71
2024-02-12T00:52:54.417Z,7.58
2024-02-12T00:55:22.136Z,7.53
2024-02-12T00:57:49.754Z,7.59
2024-02-12T01:00:18.199Z,7.60
2024-02-12T01:02:46.895Z,7.66
2024-02-12T01:05:15.394Z,7.58
2024-02-12T01:07:43.415Z,7.59
2024-02-12T01:10:14.465Z,7.69
2024-02-12T01:12:43.531Z,7.65
2024-02-12T01:15:11.758Z,7.70
2024-02-12T01:17:44.753Z,7.67
2024-02-12T01:20:18.243Z,7.58
2024-02-12T01:22:46.241Z,7.57
2024-02-12T01:25:15.406Z,7.52
2024-02-12T01:27:42.970Z,7.57
2024-02-12T01:30:11.733Z,7.59
2024-02-12T01:32:40.340Z,7.69
2024-02-12T01:35:08.895Z,7.75
2024-02-12T01:37:36.664Z,7.72
2024-02-12T01:40:05.076Z,7.67
2024-02-12T01:42:33.140Z,7.64
2024-02-12T01:45:05.653Z,7.71
2024-02-12T01:47:34.896Z,7.50
2024-02-12T01:50:03.305Z,7.59
2024-02-12T01:52:32.755Z,7.48
2024-02-12T01:55:03.786Z,7.61
2024-02-12T01:57:31.705Z,7.65
2024-02-12T02:00:01.122Z,7.52
2024-02-12T02:02:28.759Z,7.31
2024-02-12T02:04:56.553Z,7.46
2024-02-12T02:07:25.297Z,7.40
2024-02-12T02:09:52.887Z,7.49
2024-02-12T02:12:23.095Z,7.51
2024-02-12T02:14:50.940Z,7.50
2024-02-12T02:17:21.308Z,7.42
2024-02-12T02:19:49.950Z,7.38
2024-02-12T02:22:18.290Z,7.49
2024-02-12T02:24:47.242Z,7.48
2024-02-12T02:27:15.465Z,7.50
2024-02-12T02:29:44.097Z,7.44
2024-02-12T02:32:11.802Z,7.47
2024-02-12T02:34:39.514Z,7.45
2024-02-12T02:37:07.590Z,7.47
2024-02-12T02:39:35.156Z,7.55
2024-02-12T02:42:04.631Z,7.49
2024-02-12T02:44:32.341Z,7.57
2024-02-12T02:47:00.045Z,7.60
2024-02-12T02:49:27.662Z,7.44
2024-02-12T02:51:56.350Z,7.54
2024-02-12T02:54:24.018Z,7.60
2024-02-12T02:56:53.089Z,7.49
2024-02-12T02:59:22.371Z,7.59
2024-02-12T03:01:50.022Z,7.65
2024-02-12T03:04:18.066Z,7.60
2024-02-12T03:06:45.773Z,7.60
2024-02-12T03:09:14.743Z,7.63
2024-02-12T03:11:42.578Z,7.69
2024-02-12T03:14:10.653Z,7.70
2024-02-12T03:16:39.756Z,7.68
2024-02-12T03:19:07.484Z,7.72
2024-02-12T03:21:35.526Z,7.75
2024-02-12T03:24:03.320Z,7.70
2024-02-12T03:26:31.806Z,7.62
2024-02-12T03:28:59.474Z,7.58
2024-02-12T03:31:26.284Z,7.63
2024-02-12T03:33:55.300Z,7.60
2024-02-12T03:36:23.782Z,7.48
2024-02-12T03:38:51.343Z,7.61
2024-02-12T03:41:25.558Z,7.69
2024-02-12T03:43:54.513Z,7.61
2024-02-12T03:46:22.421Z,7.58
2024-02-12T03:49:08.387Z,7.53
2024-02-12T03:51:55.035Z,7.52
2024-02-12T03:54:40.080Z,7.54
2024-02-12T03:57:25.377Z,7.61
2024-02-12T03:59:52.988Z,7.48
2024-02-12T04:02:20.855Z,7.49
2024-02-12T04:04:48.523Z,7.50
2024-02-12T04:07:17.643Z,7.49
2024-02-12T04:09:45.263Z,7.52
2024-02-12T04:12:13.471Z,7.47
2024-02-12T04:14:43.751Z,7.48
2024-02-12T04:17:13.115Z,7.44
2024-02-12T04:19:40.981Z,7.42
2024-02-12T04:22:11.947Z,7.40
2024-02-12T04:24:42.144Z,7.48
2024-02-12T04:27:11.223Z,7.46
2024-02-12T04:29:41.309Z,7.51
2024-02-12T04:32:12.808Z,7.49
2024-02-12T04:34:41.954Z,8.06
2024-02-12T04:37:11.608Z,9.81
2024-02-12T04:39:39.869Z,10.90
2024-02-12T04:42:09.074Z,10.26
2024-02-12T04:44:36.754Z,9.33
2024-02-12T04:47:05.496Z,8.70
2024-02-12T04:49:34.698Z,8.40
2024-02-12T04:52:02.360Z,8.10
2024-02-12T04:54:29.974Z,7.97
2024-02-12T04:56:57.550Z,7.80
2024-02-12T04:59:26.520Z,7.84
2024-02-12T05:01:55.942Z,7.70
2024-02-12T05:04:23.864Z,7.66
2024-02-12T05:06:52.700Z,7.57
2024-02-12T05:09:20.545Z,7.61
2024-02-12T05:11:48.277Z,7.63
2024-02-12T05:14:15.933Z,7.58
2024-02-12T05:16:46.901Z,7.61
2024-02-12T05:19:32.256Z,7.55
2024-02-12T05:22:17.511Z,7.44
2024-02-12T05:24:45.077Z,7.30
2024-02-12T05:27:12.670Z,7.30
2024-02-12T05:29:40.403Z,7.43
2024-02-12T05:32:09.650Z,7.22
2024-02-12T05:34:37.780Z,7.30
2024-02-12T05:37:06.972Z,7.24
2024-02-12T05:39:35.324Z,7.16
2024-02-12T05:42:03.147Z,7.20
2024-02-12T05:44:30.853Z,7.35
2024-02-12T05:46:58.760Z,7.36
2024-02-12T05:49:30.065Z,7.30
2024-02-12T05:51:57.713Z,7.32
2024-02-12T05:54:26.499Z,7.09
2024-02-12T05:56:54.127Z,7.29
2024-02-12T05:59:21.741Z,7.30
2024-02-12T06:01:49.360Z,7.24
2024-02-12T06:04:16.957Z,7.37
2024-02-12T06:06:46.928Z,7.39
2024-02-12T06:09:15.054Z,7.07
2024-02-12T06:11:42.800Z,7.14
2024-02-12T06:14:10.435Z,7.25
2024-02-12T06:16:38.667Z,7.28
2024-02-12T06:19:08.373Z,7.37
2024-02-12T06:21:37.283Z,7.38
2024-02-12T06:24:07.079Z,7.36
2024-02-12T06:26:34.880Z,7.24
2024-02-12T06:29:04.768Z,7.28
2024-02-12T06:31:33.079Z,7.36
2024-02-12T06:34:00.870Z,7.31
2024-02-12T06:36:29.969Z,7.29
2024-02-12T06:38:57.740Z,7.29
2024-02-12T06:41:28.162Z,7.37
2024-02-12T06:43:55.949Z,7.28
2024-02-12T06:46:23.970Z,7.37
2024-02-12T06:48:51.736Z,7.40
2024-02-12T06:51:19.366Z,7.44
2024-02-12T06:53:47.395Z,7.47
2024-02-12T06:56:15.116Z,7.49
2024-02-12T06:58:45.582Z,7.51
2024-02-12T07:01:14.586Z,7.53
2024-02-12T07:03:45.876Z,7.55
2024-02-12T07:06:13.623Z,7.54
2024-02-12T07:08:42.278Z,7.52
2024-02-12T07:11:14.299Z,7.52
2024-02-12T07:13:41.888Z,7.54
2024-02-12T07:16:17.805Z,7.57
2024-02-12T07:18:45.496Z,7.57
2024-02-12T07:21:13.689Z,7.61
2024-02-12T07:23:41.819Z,7.64
2024-02-12T07:26:09.784Z,7.61
2024-02-12T07:28:38.157Z,7.59
2024-02-12T07:31:09.036Z,7.60
2024-02-12T07:33:38.310Z,7.59
2024-02-12T07:36:07.713Z,7.64
2024-02-12T07:38:35.502Z,7.67
2024-02-12T07:41:03.379Z,7.69
2024-02-12T07:43:31.432Z,7.72
2024-02-12T07:45:59.404Z,7.79
2024-02-12T07:48:28.035Z,7.79
2024-02-12T07:50:57.733Z,7.82
2024-02-12T07:53:30.036Z,7.82
2024-02-12T07:55:58.074Z,7.84
2024-02-12T07:58:25.882Z,7.81
2024-02-12T08:00:53.703Z,7.80
2024-02-12T08:03:22.109Z,7.81
2024-02-12T08:05:51.850Z,7.77
2024-02-12T08:08:21.116Z,7.86
2024-02-12T08:10:48.961Z,7.86
2024-02-12T08:13:16.759Z,7.87
2024-02-12T08:15:44.943Z,7.83
2024-02-12T08:18:20.782Z,7.89
2024-02-12T08:20:49.050Z,7.90
2024-02-12T08:23:17.096Z,7.95
2024-02-12T08:25:46.465Z,7.99
2024-02-12T08:28:14.398Z,7.97
2024-02-12T08:30:42.681Z,8.01
2024-02-12T08:33:11.085Z,8.07
2024-02-12T08:35:38.993Z,8.05
2024-02-12T08:38:09.360Z,8.09
2024-02-12T08:40:37.402Z,8.09
2024-02-12T08:43:07.573Z,8.04
2024-02-12T08:45:38.661Z,8.08
2024-02-12T08:48:08.121Z,8.11
2024-02-12T08:50:42.847Z,8.18
2024-02-12T08:53:11.881Z,8.09
2024-02-12T08:55:39.887Z,8.16
2024-02-12T08:58:12.021Z,8.13
2024-02-12T09:00:40.312Z,8.16
2024-02-12T09:03:08.267Z,8.21
2024-02-12T09:05:35.972Z,8.20
2024-02-12T09:08:04.031Z,8.26
2024-02-12T09:10:32.229Z,8.28
2024-02-12T09:13:01.235Z,8.33
2024-02-12T09:15:30.325Z,8.26
2024-02-12T09:17:59.578Z,8.22
2024-02-12T09:20:27.388Z,8.26
2024-02-12T09:22:55.356Z,8.24
2024-02-12T09:25:24.710Z,8.22
2024-02-12T09:27:54.116Z,8.22
2024-02-12T09:30:21.717Z,8.23
2024-02-12T09:32:51.310Z,8.24
2024-02-12T09:35:20.754Z,8.23
2024-02-12T09:37:50.538Z,8.37
2024-02-12T09:40:22.537Z,8.34
2024-02-12T09:42:52.849Z,8.42
2024-02-12T09:45:20.823Z,8.59
2024-02-12T09:47:50.209Z,8.74
2024-02-12T09:50:19.021Z,8.70
2024-02-12T09:52:47.209Z,8.55
2024-02-12T09:55:15.272Z,8.42
2024-02-12T09:57:45.030Z,8.33
2024-02-12T10:00:13.946Z,8.36
2024-02-12T10:02:41.913Z,8.39
2024-02-12T10:05:19.370Z,8.39
2024-02-12T10:07:47.415Z,8.40
2024-02-12T10:10:16.101Z,8.33
2024-02-12T10:12:43.973Z,8.46
2024-02-12T10:15:14.770Z,8.49
2024-02-12T10:17:44.020Z,8.46
2024-02-12T10:20:13.170Z,8.60
2024-02-12T10:22:41.538Z,8.48
2024-02-12T10:25:10.443Z,8.44
2024-02-12T10:27:39.272Z,8.45
2024-02-12T10:30:07.953Z,8.39
2024-02-12T10:32:36.956Z,8.46
2024-02-12T10:35:08.262Z,8.44
2024-02-12T10:37:38.236Z,8.48
2024-02-12T10:40:14.016Z,8.74
2024-02-12T10:42:49.898Z,8.72
2024-02-12T10:45:18.437Z,8.78
2024-02-12T10:47:46.542Z,8.86
2024-02-12T10:50:15.847Z,8.49
2024-02-12T10:52:45.368Z,8.52
2024-02-12T10:55:13.463Z,8.69
2024-02-12T10:57:43.792Z,8.69
2024-02-12T11:00:20.789Z,8.59
2024-02-12T11:02:51.675Z,8.58
2024-02-12T11:05:19.978Z,8.65
2024-02-12T11:07:49.153Z,8.76
2024-02-12T11:10:20.632Z,8.44
2024-02-12T11:12:48.381Z,8.68
2024-02-12T11:15:23.060Z,8.78
2024-02-12T11:17:50.932Z,8.69
2024-02-12T11:20:19.017Z,8.52
2024-02-12T11:22:47.764Z,8.69
2024-02-12T11:25:23.416Z,8.77
2024-02-12T11:27:53.659Z,8.50
2024-02-12T11:30:22.054Z,8.47
2024-02-12T11:32:50.570Z,8.77
2024-02-12T11:35:20.302Z,8.94
2024-02-12T11:37:49.273Z,9.21
2024-02-12T11:40:21.352Z,9.46
2024-02-12T11:42:51.007Z,9.56
2024-02-12T11:45:19.484Z,9.57
2024-02-12T11:47:48.791Z,9.58
2024-02-12T11:50:21.145Z,9.71
2024-02-12T11:52:49.202Z,9.89
2024-02-12T11:55:17.236Z,10.02
2024-02-12T11:57:47.593Z,10.47
2024-02-12T12:00:18.609Z,10.33
2024-02-12T12:02:48.199Z,10.64
2024-02-12T12:05:19.068Z,10.74
2024-02-12T12:07:47.513Z,10.74
2024-02-12T12:10:21.765Z,10.65
2024-02-12T12:12:59.266Z,10.21
2024-02-12T12:15:30.251Z,10.38
2024-02-12T12:17:59.920Z,10.32
2024-02-12T12:20:31.267Z,10.27
2024-02-12T12:23:01.702Z,10.39
2024-02-12T12:25:29.633Z,10.47
2024-02-12T12:27:58.724Z,10.65
2024-02-12T12:30:27.647Z,10.74
2024-02-12T12:32:55.538Z,10.28
2024-02-12T12:35:24.847Z,10.52
2024-02-12T12:37:53.342Z,10.66
2024-02-12T12:40:21.526Z,10.51
2024-02-12T12:42:50.484Z,10.40
2024-02-12T12:45:19.933Z,10.14
2024-02-12T12:47:49.841Z,9.90
2024-02-12T12:50:18.058Z,10.09
2024-02-12T12:52:45.897Z,10.04
2024-02-12T12:55:15.401Z,10.05
2024-02-12T12:57:45.099Z,10.10
2024-02-12T13:00:20.146Z,10.05
2024-02-12T13:02:54.136Z,10.07
2024-02-12T13:05:23.881Z,10.19
2024-02-12T13:08:17.024Z,10.23
2024-02-12T13:10:42.857Z,10.16
2024-02-12T13:13:15.121Z,10.20
2024-02-12T13:15:45.280Z,10.32
2024-02-12T13:18:18.430Z,10.41
2024-02-12T13:20:48.829Z,10.43
2024-02-12T13:23:18.875Z,10.46
2024-02-12T13:25:46.754Z,10.50
2024-02-12T13:28:17.137Z,10.51
2024-02-12T13:30:47.915Z,10.74
2024-02-12T13:33:18.535Z,10.52
2024-02-12T13:35:48.522Z,10.43
2024-02-12T13:38:19.259Z,10.48
2024-02-12T13:40:47.221Z,10.44
2024-02-12T13:43:16.525Z,10.65
2024-02-12T13:45:45.058Z,10.77
2024-02-12T13:48:12.964Z,10.56
2024-02-12T13:50:42.173Z,10.71
2024-02-12T13:53:11.142Z,10.71
2024-02-12T13:55:41.436Z,10.77
2024-02-12T13:58:09.333Z,10.68
2024-02-12T14:00:54.959Z,10.49
2024-02-12T14:03:26.947Z,10.59
2024-02-12T14:05:56.843Z,10.49
2024-02-12T14:08:24.701Z,10.35
2024-02-12T14:10:54.487Z,10.11
2024-02-12T14:13:22.406Z,10.20
2024-02-12T14:16:05.234Z,10.18
2024-02-12T14:18:37.453Z,10.33
2024-02-12T14:21:09.680Z,10.44
2024-02-12T14:23:37.320Z,10.36
2024-02-12T14:26:05.895Z,10.50
2024-02-12T14:28:33.985Z,10.47
2024-02-12T14:31:01.634Z,10.38
2024-02-12T14:33:29.537Z,10.53
2024-02-12T14:35:58.444Z,10.18
2024-02-12T14:38:27.542Z,10.36
2024-02-12T14:40:57.607Z,10.11
2024-02-12T14:43:25.539Z,10.31
2024-02-12T14:45:53.429Z,10.35
2024-02-12T14:48:22.143Z,10.31
2024-02-12T14:50:50.342Z,10.01
2024-02-12T14:53:21.912Z,10.12
2024-02-12T14:55:53.511Z,10.00
2024-02-12T14:58:21.203Z,9.92
2024-02-12T15:00:49.175Z,9.67
2024-02-12T15:03:16.857Z,9.76
2024-02-12T15:05:44.550Z,9.59
2024-02-12T15:08:12.290Z,9.60
2024-02-12T15:10:40.677Z,9.51
2024-02-12T15:13:09.655Z,9.70
2024-02-12T15:15:37.314Z,9.55
2024-02-12T15:18:05.369Z,9.79
2024-02-12T15:20:35.156Z,9.82
2024-02-12T15:23:05.768Z,9.86
2024-02-12T15:25:33.782Z,9.86
2024-02-12T15:28:03.131Z,9.98
2024-02-12T15:30:32.404Z,11.57
2024-02-12T15:33:00.531Z,12.04
2024-02-12T15:35:28.675Z,12.30
2024-02-12T15:37:58.660Z,11.75
2024-02-12T15:40:26.498Z,12.76
2024-02-12T15:42:56.374Z,12.92
2024-02-12T15:45:25.257Z,13.40
2024-02-12T15:47:58.092Z,13.59
2024-02-12T15:50:27.257Z,13.71
2024-02-12T15:52:56.188Z,13.47
2024-02-12T15:55:26.114Z,12.55
2024-02-12T15:57:55.340Z,12.25
2024-02-12T16:00:27.591Z,12.54
2024-02-12T16:03:00.403Z,12.98
2024-02-12T16:06:08.359Z,13.13
2024-02-12T16:08:38.877Z,13.29
2024-02-12T16:11:08.222Z,13.50
2024-02-12T16:13:36.712Z,12.45
2024-02-12T16:16:07.166Z,11.47
2024-02-12T16:18:36.696Z,10.80
2024-02-12T16:21:06.534Z,10.41
2024-02-12T16:23:35.189Z,10.08
2024-02-12T16:26:05.125Z,10.06
2024-02-12T16:28:33.648Z,11.45
2024-02-12T16:31:02.239Z,11.57
2024-02-12T16:33:30.557Z,10.82
2024-02-12T16:36:00.329Z,10.19
2024-02-12T16:38:28.831Z,9.72
2024-02-12T16:40:56.639Z,9.64
2024-02-12T16:43:24.393Z,9.57
2024-02-12T16:45:52.060Z,9.43
2024-02-12T16:48:20.419Z,9.33
2024-02-12T16:50:48.208Z,9.23
2024-02-12T16:53:17.448Z,9.14
2024-02-12T16:55:45.088Z,9.00
2024-02-12T16:58:14.403Z,8.99
2024-02-12T17:00:42.450Z,8.91
2024-02-12T17:03:10.272Z,8.90
2024-02-12T17:05:38.223Z,8.89
2024-02-12T17:08:08.389Z,8.81
2024-02-12T17:10:38.156Z,9.71
2024-02-12T17:13:06.967Z,11.34
2024-02-12T17:15:37.619Z,10.54
2024-02-12T17:18:09.832Z,9.87
2024-02-12T17:20:39.902Z,9.37
2024-02-12T17:23:11.237Z,9.07
2024-02-12T17:25:41.259Z,8.83
2024-02-12T17:28:10.622Z,8.52
2024-02-12T17:30:38.363Z,8.44
2024-02-12T17:33:08.988Z,8.44
2024-02-12T17:35:37.346Z,8.23
2024-02-12T17:38:05.931Z,8.16
2024-02-12T17:40:34.310Z,8.07
2024-02-12T17:43:04.961Z,7.97
2024-02-12T17:45:32.583Z,8.09
2024-02-12T17:48:01.678Z,8.12
2024-02-12T17:50:30.639Z,8.11
2024-02-12T17:52:58.400Z,8.12
2024-02-12T17:55:26.010Z,9.42
2024-02-12T17:57:54.004Z,10.99
2024-02-12T18:00:24.438Z,11.51
2024-02-12T18:02:52.119Z,10.30
2024-02-12T18:05:19.867Z,9.55
2024-02-12T18:07:48.095Z,8.89
2024-02-12T18:10:15.839Z,8.72
2024-02-12T18:12:45.727Z,8.66
2024-02-12T18:15:14.558Z,8.54
2024-02-12T18:17:45.732Z,8.42
2024-02-12T18:20:14.361Z,8.36
2024-02-12T18:22:42.510Z,8.28
2024-02-12T18:25:12.713Z,8.26
2024-02-12T18:27:40.902Z,8.06
2024-02-12T18:30:12.114Z,8.10
2024-02-12T18:32:41.411Z,8.12
2024-02-12T18:35:11.923Z,8.08
2024-02-12T18:37:40.952Z,8.08
2024-02-12T18:40:17.654Z,8.06
2024-02-12T18:42:45.991Z,7.88
2024-02-12T18:45:16.621Z,7.83
2024-02-12T18:47:48.691Z,7.84
2024-02-12T18:50:19.064Z,7.77
2024-02-12T18:52:49.965Z,7.90
2024-02-12T18:55:18.880Z,10.10
2024-02-12T18:57:48.140Z,11.22
2024-02-12T19:00:17.164Z,10.03
2024-02-12T19:02:46.573Z,9.19
2024-02-12T19:05:14.568Z,8.69
2024-02-12T19:07:43.824Z,8.43
2024-02-12T19:10:12.611Z,8.33
2024-02-12T19:12:43.084Z,8.16
2024-02-12T19:15:14.924Z,8.10
2024-02-12T19:17:43.400Z,7.98
2024-02-12T19:20:13.640Z,7.88
2024-02-12T19:22:42.785Z,7.83
2024-02-12T19:25:11.994Z,7.57
2024-02-12T19:27:42.897Z,7.06
2024-02-12T19:30:12.713Z,6.73
2024-02-12T19:32:40.700Z,6.87
2024-02-12T19:35:11.296Z,7.06
2024-02-12T19:37:39.535Z,7.15
2024-02-12T19:40:15.075Z,7.26
2024-02-12T19:42:45.564Z,7.34
2024-02-12T19:45:14.382Z,7.36
2024-02-12T19:47:42.267Z,7.35
2024-02-12T19:50:12.441Z,7.28
2024-02-12T19:52:40.721Z,7.22
2024-02-12T19:55:10.244Z,7.15
2024-02-12T19:57:39.760Z,8.30
2024-02-12T20:00:13.777Z,10.16
2024-02-12T20:02:41.735Z,11.11
2024-02-12T20:05:09.762Z,9.63
2024-02-12T20:07:39.088Z,8.71
2024-02-12T20:10:09.076Z,8.16
2024-02-12T20:12:39.448Z,7.79
2024-02-12T20:15:08.730Z,7.57
2024-02-12T20:17:36.645Z,7.59
2024-02-12T20:20:06.467Z,9.94
2024-02-12T20:22:34.376Z,11.07
2024-02-12T20:25:01.976Z,9.81
2024-02-12T20:27:29.583Z,8.85
2024-02-12T20:29:58.579Z,8.19
2024-02-12T20:32:27.931Z,7.87
2024-02-12T20:34:56.929Z,7.50
2024-02-12T20:37:25.403Z,7.35
2024-02-12T20:39:53.004Z,7.22
2024-02-12T20:42:21.184Z,7.11
2024-02-12T20:44:49.827Z,7.11
2024-02-12T20:47:20.098Z,7.13
2024-02-12T20:49:49.472Z,7.10
2024-02-12T20:52:18.576Z,7.06
2024-02-12T20:54:46.566Z,7.01
2024-02-12T20:57:15.261Z,6.90
2024-02-12T20:59:43.860Z,6.90
2024-02-12T21:02:12.437Z,6.85
2024-02-12T21:04:43.197Z,6.83
2024-02-12T21:07:11.660Z,6.75
2024-02-12T21:09:41.233Z,6.68
2024-02-12T21:12:09.862Z,6.68
2024-02-12T21:14:38.965Z,6.64
2024-02-12T21:17:07.854Z,6.65
2024-02-12T21:19:36.023Z,6.62
2024-02-12T21:22:07.106Z,6.57
2024-02-12T21:24:34.683Z,6.58
2024-02-12T21:27:03.250Z,6.49
2024-02-12T21:29:31.010Z,6.50
2024-02-12T21:31:58.937Z,6.51
2024-02-12T21:34:27.611Z,6.50
2024-02-12T21:36:55.302Z,6.52
2024-02-12T21:39:35.107Z,6.65
2024-02-12T21:42:09.727Z,6.66
2024-02-12T21:44:39.167Z,6.66
2024-02-12T21:47:08.148Z,6.61
2024-02-12T21:49:35.967Z,6.65
2024-02-12T21:52:03.624Z,6.58
2024-02-12T21:54:33.214Z,6.64
2024-02-12T21:57:01.074Z,6.48
2024-02-12T21:59:28.889Z,6.46
2024-02-12T22:01:56.515Z,6.54
2024-02-12T22:04:24.248Z,6.60
2024-02-12T22:06:51.971Z,6.63
2024-02-12T22:09:19.847Z,6.68
2024-02-12T22:11:49.205Z,6.69
2024-02-12T22:14:17.241Z,6.61
2024-02-12T22:16:44.911Z,6.34
2024-02-12T22:19:12.616Z,5.88
2024-02-12T22:21:42.280Z,5.68
2024-02-12T22:24:10.148Z,5.85
2024-02-12T22:26:38.480Z,6.17
2024-02-12T22:29:07.538Z,6.27
2024-02-12T22:31:35.201Z,6.31
2024-02-12T22:34:04.736Z,6.49
2024-02-12T22:36:32.512Z,6.64
2024-02-12T22:39:00.159Z,6.65
2024-02-12T22:41:27.822Z,6.71
2024-02-12T22:43:55.583Z,6.71
2024-02-12T22:46:24.556Z,6.71
2024-02-12T22:48:52.453Z,6.75
2024-02-12T22:51:21.110Z,6.74
2024-02-12T22:53:48.923Z,6.71
2024-02-12T22:56:16.628Z,6.71
2024-02-12T22:58:44.743Z,6.64
2024-02-12T23:01:12.535Z,6.68
2024-02-12T23:03:41.663Z,6.66
2024-02-12T23:06:10.524Z,6.70
2024-02-12T23:08:38.266Z,6.76
2024-02-12T23:11:05.917Z,6.75
2024-02-12T23:13:33.565Z,6.80
2024-02-12T23:16:01.162Z,6.80
2024-02-12T23:18:29.079Z,6.80
2024-02-12T23:20:58.553Z,6.81
2024-02-12T23:23:27.647Z,6.89
2024-02-12T23:25:55.275Z,6.90
2024-02-12T23:28:22.868Z,6.84
2024-02-12T23:30:50.512Z,6.78
2024-02-12T23:33:19.436Z,6.74
2024-02-12T23:35:48.173Z,6.70
2024-02-12T23:38:18.903Z,6.65
2024-02-12T23:40:46.779Z,6.64
2024-02-12T23:43:14.893Z,6.63
2024-02-12T23:45:43.458Z,6.61
2024-02-12T23:48:11.374Z,6.34
2024-02-12T23:50:40.508Z,6.27
2024-02-12T23:53:08.468Z,6.40
2024-02-12T23:55:36.452Z,6.57
2024-02-12T23:58:05.281Z,6.65
